Time;durP1;ratioP1;P1;durP2;ratioP2;P2;SDS_P1;SDS_P2;PMS_P1;PMS_P2;Temp;Humidity;BMP_temperature;BMP_pressure;BME280_temperature;BME280_humidity;BME280_pressure;Samples;Min_cycle;Max_cycle;Signal;HPM_P1;HPM_P2
2021/06/13 00:01:22;;;;;;;1.80;1.50;;;14.80;99.90;;;;;;5100310;28;20035;-76
2021/06/13 00:03:49;;;;;;;3.03;1.73;;;14.80;99.90;;;;;;5100769;28;20028;-77
2021/06/13 00:06:14;;;;;;;1.85;1.52;;;14.70;99.90;;;;;;5099635;28;20066;-76
2021/06/13 00:08:40;;;;;;;2.90;2.00;;;14.70;99.90;;;;;;5101904;28;20055;-75
2021/06/13 00:11:06;;;;;;;1.90;1.70;;;14.70;99.90;;;;;;5101478;28;20020;-77
2021/06/13 00:13:32;;;;;;;3.33;1.60;;;14.60;99.90;;;;;;5098353;27;20024;-77
2021/06/13 00:15:58;;;;;;;3.10;1.60;;;14.60;99.90;;;;;;5100645;28;20423;-76
2021/06/13 00:18:24;;;;;;;1.58;1.48;;;14.60;99.90;;;;;;5100014;28;20577;-76
2021/06/13 00:20:52;;;;;;;2.10;1.30;;;14.50;99.90;;;;;;5103667;28;20021;-76
2021/06/13 00:23:17;;;;;;;3.45;1.73;;;14.50;99.90;;;;;;5099422;28;20055;-76
2021/06/13 00:25:44;;;;;;;2.80;1.67;;;14.50;99.90;;;;;;5101905;28;20089;-76
2021/06/13 00:28:10;;;;;;;2.60;1.35;;;14.40;99.90;;;;;;5099800;28;20035;-77
2021/06/13 00:30:37;;;;;;;3.30;1.20;;;14.40;99.90;;;;;;5086582;28;20089;-77
2021/06/13 00:33:04;;;;;;;1.50;1.40;;;14.30;99.90;;;;;;5103084;28;20031;-77
2021/06/13 00:35:30;;;;;;;1.67;1.48;;;14.30;99.90;;;;;;5096813;28;20069;-77
2021/06/13 00:37:56;;;;;;;1.35;1.15;;;14.30;99.90;;;;;;5100351;28;20615;-77
2021/06/13 00:40:23;;;;;;;1.67;1.50;;;14.20;99.90;;;;;;5100191;28;20020;-76
2021/06/13 00:42:50;;;;;;;2.65;1.55;;;14.20;99.90;;;;;;5098452;28;20027;-76
2021/06/13 00:45:16;;;;;;;3.10;1.60;;;14.20;99.90;;;;;;5097930;28;20123;-75
2021/06/13 00:47:42;;;;;;;3.17;1.33;;;14.10;99.90;;;;;;5103217;28;20102;-77
2021/06/13 00:50:13;;;;;;;3.95;1.73;;;14.10;99.90;;;;;;5100734;28;20032;-77
2021/06/13 00:52:39;;;;;;;1.30;1.20;;;14.10;99.90;;;;;;5100243;28;20080;-76
2021/06/13 00:55:05;;;;;;;2.75;1.45;;;14.10;99.90;;;;;;5100723;28;20115;-77
2021/06/13 00:57:31;;;;;;;1.48;1.38;;;14.00;99.90;;;;;;5098634;28;20023;-76
2021/06/13 00:59:57;;;;;;;3.05;1.55;;;14.00;99.90;;;;;;5100942;28;20028;-76
2021/06/13 01:02:24;;;;;;;4.32;1.50;;;14.00;99.90;;;;;;5081055;28;20667;-77
2021/06/13 01:04:52;;;;;;;3.08;1.58;;;13.90;99.90;;;;;;5093806;28;20491;-76
2021/06/13 01:07:18;;;;;;;1.67;1.40;;;13.90;99.90;;;;;;5102171;28;20547;-77
2021/06/13 01:09:57;;;;;;;2.35;1.27;;;13.90;99.90;;;;;;5098453;28;20081;-76
2021/06/13 01:12:31;;;;;;;3.03;1.45;;;13.90;99.90;;;;;;5101188;27;20036;-77
2021/06/13 01:15:20;;;;;;;3.42;1.40;;;13.90;99.90;;;;;;5097922;28;20024;-77
2021/06/13 01:17:54;;;;;;;2.72;1.50;;;13.90;99.90;;;;;;5083540;28;20028;-75
2021/06/13 01:20:43;;;;;;;1.15;1.05;;;13.90;99.90;;;;;;5115839;27;20517;-76
2021/06/13 01:23:33;;;;;;;2.35;1.35;;;13.90;99.90;;;;;;5097000;28;20028;-76
2021/06/13 01:26:06;;;;;;;2.83;1.60;;;13.90;99.90;;;;;;5101910;28;20427;-77
2021/06/13 01:28:51;;;;;;;2.70;1.38;;;13.90;99.90;;;;;;5088767;28;20498;-77
2021/06/13 01:31:19;;;;;;;2.53;1.33;;;13.90;99.90;;;;;;5102049;28;20031;-77
2021/06/13 01:33:48;;;;;;;2.53;1.38;;;14.00;99.90;;;;;;5100426;28;20138;-76
2021/06/13 01:36:15;;;;;;;2.92;1.17;;;14.00;99.90;;;;;;5097005;28;20424;-77
2021/06/13 01:38:45;;;;;;;2.00;1.48;;;14.00;99.90;;;;;;5102518;28;20043;-76
2021/06/13 01:41:16;;;;;;;1.50;1.20;;;13.90;99.90;;;;;;5099097;28;20062;-76
2021/06/13 01:43:43;;;;;;;3.20;1.20;;;13.90;99.90;;;;;;5101521;28;20364;-76
2021/06/13 01:46:11;;;;;;;4.07;1.75;;;13.90;99.90;;;;;;5094921;28;20039;-76
2021/06/13 01:48:38;;;;;;;1.40;1.20;;;13.90;99.90;;;;;;5107611;28;20023;-77
2021/06/13 01:51:05;;;;;;;2.05;1.45;;;13.90;99.90;;;;;;5097106;28;20020;-77
2021/06/13 01:53:41;;;;;;;1.85;1.30;;;13.90;99.90;;;;;;5104062;28;20510;-77
2021/06/13 01:56:13;;;;;;;1.92;1.73;;;13.80;99.90;;;;;;5098479;28;20032;-77
2021/06/13 01:58:46;;;;;;;2.30;1.20;;;13.80;99.90;;;;;;5100219;28;20478;-77
2021/06/13 02:01:32;;;;;;;3.40;1.45;;;13.80;99.90;;;;;;5099275;28;20080;-77
2021/06/13 02:04:00;;;;;;;2.30;1.13;;;13.70;99.90;;;;;;5087286;28;20129;-76
2021/06/13 02:06:50;;;;;;;2.70;1.10;;;13.70;99.90;;;;;;5097839;28;20030;-77
2021/06/13 02:09:23;;;;;;;2.20;1.30;;;13.60;99.90;;;;;;5098478;28;20035;-76
2021/06/13 02:11:56;;;;;;;1.35;1.25;;;13.60;99.90;;;;;;5098758;28;20027;-77
2021/06/13 02:14:24;;;;;;;2.95;1.20;;;13.50;99.90;;;;;;5083662;28;20043;-77
2021/06/13 02:16:58;;;;;;;1.73;1.40;;;13.50;99.90;;;;;;5102280;28;20024;-77
2021/06/13 02:19:27;;;;;;;1.83;1.10;;;13.40;99.90;;;;;;5089665;28;20111;-76
2021/06/13 02:22:00;;;;;;;3.15;1.30;;;13.40;99.90;;;;;;5097166;28;20059;-77
2021/06/13 02:24:33;;;;;;;1.80;1.50;;;13.30;99.90;;;;;;5097849;28;20027;-77
2021/06/13 02:26:59;;;;;;;3.85;1.30;;;13.30;99.90;;;;;;5102529;28;20064;-76
2021/06/13 02:29:27;;;;;;;3.20;1.73;;;13.20;99.90;;;;;;5095368;28;20032;-77
2021/06/13 02:31:55;;;;;;;3.15;1.17;;;13.20;99.90;;;;;;5098982;28;20432;-77
2021/06/13 02:34:24;;;;;;;2.47;1.40;;;13.10;99.90;;;;;;5101565;28;20096;-77
2021/06/13 02:36:53;;;;;;;1.70;1.40;;;13.10;99.90;;;;;;5093922;28;20513;-76
2021/06/13 02:39:21;;;;;;;2.63;1.27;;;13.10;99.90;;;;;;5101707;28;20023;-76
2021/06/13 02:41:49;;;;;;;1.42;1.20;;;13.00;99.90;;;;;;5080828;28;20024;-77
2021/06/13 02:44:19;;;;;;;2.00;1.48;;;13.10;99.90;;;;;;5100214;28;20027;-77
2021/06/13 02:46:47;;;;;;;1.50;1.30;;;13.10;99.90;;;;;;5099374;28;20059;-76
2021/06/13 02:49:14;;;;;;;3.17;1.40;;;13.10;99.90;;;;;;5080949;28;20028;-76
2021/06/13 02:51:56;;;;;;;2.08;1.50;;;13.20;99.90;;;;;;5100193;28;20032;-76
2021/06/13 02:54:24;;;;;;;3.47;1.27;;;13.20;99.90;;;;;;5095618;28;20024;-76
2021/06/13 02:56:57;;;;;;;1.83;1.50;;;13.30;99.90;;;;;;5096964;28;20023;-76
2021/06/13 02:59:31;;;;;;;1.88;1.48;;;13.30;99.90;;;;;;5095199;28;20024;-76
2021/06/13 03:02:00;;;;;;;2.13;1.45;;;13.40;99.90;;;;;;5098074;28;20016;-76
2021/06/13 03:04:29;;;;;;;3.05;1.45;;;13.40;99.90;;;;;;5099778;28;20024;-77
2021/06/13 03:06:58;;;;;;;2.63;1.30;;;13.40;99.90;;;;;;5097751;28;20436;-76
2021/06/13 03:09:28;;;;;;;1.70;1.42;;;13.40;99.90;;;;;;5085130;28;20031;-77
2021/06/13 03:11:56;;;;;;;2.10;1.50;;;13.40;99.90;;;;;;5093105;28;20115;-77
2021/06/13 03:14:25;;;;;;;4.20;1.63;;;13.30;99.90;;;;;;5101615;28;20032;-76
2021/06/13 03:16:53;;;;;;;3.47;1.80;;;13.30;99.90;;;;;;5092160;28;20028;-77
2021/06/13 03:19:20;;;;;;;2.90;1.42;;;13.30;99.90;;;;;;5087445;28;20032;-78
2021/06/13 03:21:49;;;;;;;1.67;1.50;;;13.20;99.90;;;;;;5103606;28;20382;-77
2021/06/13 03:24:18;;;;;;;3.28;1.35;;;13.10;99.90;;;;;;5103548;28;20024;-77
2021/06/13 03:26:45;;;;;;;3.60;1.70;;;13.00;99.90;;;;;;5103459;28;20081;-77
2021/06/13 03:29:12;;;;;;;5.03;1.65;;;12.90;99.90;;;;;;5100613;28;20032;-77
2021/06/13 03:31:40;;;;;;;2.70;1.60;;;12.80;99.90;;;;;;5099891;28;20043;-76
2021/06/13 03:34:07;;;;;;;4.32;2.10;;;12.90;99.90;;;;;;5101692;28;20027;-77
2021/06/13 03:36:33;;;;;;;3.25;1.65;;;12.80;99.90;;;;;;5091458;28;20036;-77
2021/06/13 03:39:01;;;;;;;2.72;1.75;;;12.80;99.90;;;;;;5104458;28;20419;-77
2021/06/13 03:41:27;;;;;;;4.00;1.60;;;12.90;99.90;;;;;;5104579;28;20030;-76
2021/06/13 03:43:55;;;;;;;4.18;1.73;;;13.00;99.90;;;;;;5102744;28;20047;-77
2021/06/13 03:46:22;;;;;;;3.53;1.73;;;13.00;99.90;;;;;;5108540;27;20394;-77
2021/06/13 03:48:54;;;;;;;2.22;1.35;;;13.00;99.90;;;;;;5098872;28;20020;-77
2021/06/13 03:51:21;;;;;;;3.08;1.50;;;12.90;99.90;;;;;;5102835;28;20043;-77
2021/06/13 03:53:48;;;;;;;1.90;1.70;;;12.90;99.90;;;;;;5103978;28;20024;-76
2021/06/13 03:56:19;;;;;;;3.47;1.60;;;12.80;99.90;;;;;;5104838;28;20020;-77
2021/06/13 03:58:46;;;;;;;2.63;1.60;;;12.60;99.90;;;;;;5103757;28;20057;-77
2021/06/13 04:01:14;;;;;;;1.92;1.52;;;12.60;99.90;;;;;;5102181;28;20035;-77
2021/06/13 04:03:42;;;;;;;3.35;1.70;;;12.60;99.90;;;;;;5102501;27;20024;-77
2021/06/13 04:06:08;;;;;;;2.58;1.83;;;12.60;99.90;;;;;;5104449;28;20032;-77
2021/06/13 04:08:37;;;;;;;3.60;1.50;;;12.60;99.90;;;;;;5104771;28;20039;-77
2021/06/13 04:11:04;;;;;;;2.08;1.58;;;12.70;99.90;;;;;;5091414;28;20119;-76
2021/06/13 04:13:30;;;;;;;2.38;1.65;;;12.70;99.90;;;;;;5101962;28;20036;-76
2021/06/13 04:15:57;;;;;;;3.60;1.80;;;12.70;99.90;;;;;;5101910;28;20028;-76
2021/06/13 04:18:23;;;;;;;3.00;1.70;;;12.80;99.90;;;;;;5104194;28;20027;-77
2021/06/13 04:20:49;;;;;;;3.50;1.50;;;12.90;99.90;;;;;;5102446;28;20023;-77
2021/06/13 04:23:15;;;;;;;2.63;1.80;;;12.90;99.90;;;;;;5102232;28;20023;-77
2021/06/13 04:25:43;;;;;;;2.58;1.92;;;13.00;99.90;;;;;;5103650;28;20027;-77
2021/06/13 04:28:13;;;;;;;5.65;1.80;;;13.00;99.90;;;;;;5090075;28;20036;-77
2021/06/13 04:30:39;;;;;;;3.85;1.90;;;13.10;99.90;;;;;;5103036;28;20039;-76
2021/06/13 04:33:05;;;;;;;3.63;1.70;;;13.20;99.90;;;;;;5104808;28;20115;-77
2021/06/13 04:35:31;;;;;;;4.28;2.03;;;13.30;99.90;;;;;;5102525;28;20110;-76
2021/06/13 04:37:57;;;;;;;2.72;1.70;;;13.40;99.90;;;;;;5100568;28;20562;-76
2021/06/13 04:40:22;;;;;;;1.67;1.58;;;13.50;99.90;;;;;;5102712;28;20281;-77
2021/06/13 04:42:48;;;;;;;3.67;1.88;;;13.60;99.90;;;;;;5104029;28;20024;-77
2021/06/13 04:45:14;;;;;;;5.78;1.90;;;13.70;99.90;;;;;;5102981;27;20763;-77
2021/06/13 04:47:40;;;;;;;3.25;1.73;;;13.80;99.90;;;;;;5103828;28;20040;-77
2021/06/13 04:50:06;;;;;;;1.65;1.52;;;13.80;99.90;;;;;;5104748;28;20032;-77
2021/06/13 04:52:32;;;;;;;1.98;1.63;;;13.90;99.90;;;;;;5100714;28;20032;-76
2021/06/13 04:55:08;;;;;;;1.88;1.70;;;13.90;99.90;;;;;;5110332;28;20114;-76
2021/06/13 04:57:36;;;;;;;2.20;1.60;;;13.90;99.90;;;;;;5103691;28;20028;-77
2021/06/13 05:00:04;;;;;;;1.38;1.27;;;13.90;99.90;;;;;;5101110;28;20027;-77
2021/06/13 05:02:31;;;;;;;4.85;1.75;;;13.90;99.90;;;;;;5106296;28;20039;-77
2021/06/13 05:04:56;;;;;;;3.70;1.85;;;13.90;99.90;;;;;;5105980;27;20455;-77
2021/06/13 05:07:23;;;;;;;2.88;1.55;;;14.00;99.90;;;;;;5102929;28;20027;-77
2021/06/13 05:09:49;;;;;;;3.30;1.90;;;14.10;99.90;;;;;;5102925;28;20393;-77
2021/06/13 05:12:15;;;;;;;3.38;1.40;;;14.10;99.90;;;;;;5101060;28;20030;-77
2021/06/13 05:14:41;;;;;;;2.60;1.60;;;14.10;99.90;;;;;;5101265;28;20023;-77
2021/06/13 05:17:06;;;;;;;2.53;1.45;;;14.30;99.90;;;;;;5103003;28;20049;-77
2021/06/13 05:19:32;;;;;;;1.80;1.40;;;14.40;99.90;;;;;;5100567;28;20054;-77
2021/06/13 05:21:58;;;;;;;4.70;1.67;;;14.50;99.90;;;;;;5101720;28;20115;-76
2021/06/13 05:24:24;;;;;;;3.70;2.00;;;14.50;99.90;;;;;;5103486;28;20030;-76
2021/06/13 05:26:49;;;;;;;2.03;1.60;;;14.60;99.90;;;;;;5101661;28;20020;-77
2021/06/13 05:29:15;;;;;;;3.65;1.85;;;14.80;99.90;;;;;;5098665;28;20024;-77
2021/06/13 05:31:41;;;;;;;2.35;1.85;;;15.00;99.90;;;;;;5101710;28;20034;-77
2021/06/13 05:34:07;;;;;;;5.30;1.67;;;15.30;99.90;;;;;;5098515;28;20040;-76
2021/06/13 05:36:32;;;;;;;1.80;1.40;;;15.40;99.90;;;;;;5101012;28;20119;-76
2021/06/13 05:38:58;;;;;;;4.60;1.60;;;15.50;99.90;;;;;;5103507;28;20024;-77
2021/06/13 05:41:24;;;;;;;3.42;1.85;;;15.70;99.90;;;;;;5103978;28;20031;-77
2021/06/13 05:43:50;;;;;;;3.10;1.52;;;16.00;99.90;;;;;;5101961;28;20039;-76
2021/06/13 05:46:19;;;;;;;2.65;1.45;;;16.30;99.90;;;;;;5106941;27;20032;-75
2021/06/13 05:48:45;;;;;;;2.53;1.67;;;16.60;99.90;;;;;;5102851;28;20562;-76
2021/06/13 05:51:13;;;;;;;2.45;1.52;;;16.90;99.90;;;;;;5109060;27;20028;-75
2021/06/13 05:53:39;;;;;;;4.47;1.60;;;17.10;99.90;;;;;;5110526;27;20058;-76
2021/06/13 05:56:05;;;;;;;4.43;1.52;;;17.20;99.90;;;;;;5100558;28;20019;-76
2021/06/13 05:58:30;;;;;;;6.68;1.73;;;17.40;99.90;;;;;;5100507;28;20027;-77
2021/06/13 06:00:56;;;;;;;2.10;1.50;;;17.40;99.90;;;;;;5088977;28;20105;-77
2021/06/13 06:03:22;;;;;;;3.83;1.65;;;17.30;99.90;;;;;;5101982;28;20035;-76
2021/06/13 06:05:50;;;;;;;2.45;1.42;;;17.20;99.90;;;;;;5099673;28;20104;-76
2021/06/13 06:08:17;;;;;;;3.15;1.70;;;17.10;99.90;;;;;;5097482;27;20036;-76
2021/06/13 06:10:44;;;;;;;2.67;1.50;;;17.00;99.90;;;;;;5101734;28;20085;-77
2021/06/13 06:13:10;;;;;;;3.25;1.65;;;17.00;99.90;;;;;;5101219;28;20036;-77
2021/06/13 06:15:38;;;;;;;3.40;1.63;;;17.00;99.90;;;;;;5101243;28;20032;-77
2021/06/13 06:18:05;;;;;;;3.85;1.58;;;17.00;99.90;;;;;;5100111;28;20390;-75
2021/06/13 06:20:32;;;;;;;3.70;1.30;;;16.90;99.90;;;;;;5088764;28;20024;-77
2021/06/13 06:22:58;;;;;;;6.35;1.90;;;16.80;99.90;;;;;;5100630;28;20024;-77
2021/06/13 06:25:25;;;;;;;7.72;1.65;;;16.70;99.90;;;;;;5098834;28;20024;-77
2021/06/13 06:27:51;;;;;;;5.35;1.83;;;16.60;99.90;;;;;;5094251;28;20449;-76
2021/06/13 06:30:19;;;;;;;2.30;1.70;;;17.20;99.90;;;;;;5095921;28;20390;-77
2021/06/13 06:32:45;;;;;;;5.50;1.70;;;18.00;99.90;;;;;;5095177;28;20050;-76
2021/06/13 06:35:12;;;;;;;2.88;1.50;;;18.60;99.90;;;;;;5096795;28;20036;-77
2021/06/13 06:37:41;;;;;;;1.88;1.50;;;19.20;99.90;;;;;;5096299;28;20397;-77
2021/06/13 06:40:08;;;;;;;7.13;1.75;;;19.90;99.80;;;;;;5097502;28;20027;-77
2021/06/13 06:42:34;;;;;;;5.32;1.63;;;20.70;93.90;;;;;;5102102;28;20051;-77
2021/06/13 06:45:00;;;;;;;2.38;1.50;;;21.50;92.80;;;;;;5103894;27;20036;-77
2021/06/13 06:47:26;;;;;;;3.17;1.50;;;22.30;91.00;;;;;;5099061;28;20401;-77
2021/06/13 06:49:52;;;;;;;2.38;1.20;;;23.10;80.70;;;;;;5101810;28;20034;-77
2021/06/13 06:52:18;;;;;;;1.48;1.33;;;23.60;73.30;;;;;;5097902;28;20105;-76
2021/06/13 06:54:44;;;;;;;2.08;1.38;;;23.90;73.20;;;;;;5102208;28;20099;-77
2021/06/13 06:57:10;;;;;;;1.65;1.30;;;24.40;69.00;;;;;;5098827;28;20024;-77
2021/06/13 06:59:36;;;;;;;1.80;1.10;;;24.80;65.00;;;;;;5099169;27;20417;-77
2021/06/13 07:02:03;;;;;;;2.95;1.10;;;25.30;60.90;;;;;;5102173;28;20072;-77
2021/06/13 07:04:29;;;;;;;0.95;0.88;;;25.60;58.10;;;;;;5100892;28;20020;-77
2021/06/13 07:06:55;;;;;;;1.77;1.00;;;25.90;56.10;;;;;;5097784;28;20024;-77
2021/06/13 07:09:20;;;;;;;2.80;1.05;;;25.60;56.00;;;;;;5101584;27;20103;-76
2021/06/13 07:11:46;;;;;;;3.03;1.17;;;25.00;56.90;;;;;;5101074;28;20019;-77
2021/06/13 07:14:12;;;;;;;1.35;1.20;;;24.20;57.50;;;;;;5104824;28;20494;-76
2021/06/13 07:16:38;;;;;;;1.48;1.30;;;23.40;60.00;;;;;;5102166;28;20032;-76
2021/06/13 07:19:03;;;;;;;4.07;1.38;;;22.90;62.30;;;;;;5100666;28;20032;-76
2021/06/13 07:21:29;;;;;;;2.25;1.17;;;23.00;61.90;;;;;;5096064;28;20030;-76
2021/06/13 07:23:55;;;;;;;1.65;1.30;;;23.40;55.10;;;;;;5095419;28;20048;-77
2021/06/13 07:26:21;;;;;;;2.30;1.15;;;23.70;57.90;;;;;;5099711;28;20097;-77
2021/06/13 07:28:46;;;;;;;2.03;1.27;;;23.40;54.80;;;;;;5098695;28;20077;-77
2021/06/13 07:31:12;;;;;;;2.83;1.42;;;23.00;59.70;;;;;;5100779;28;20039;-77
2021/06/13 07:33:38;;;;;;;2.15;1.30;;;22.40;62.40;;;;;;5100684;27;20619;-76
2021/06/13 07:36:05;;;;;;;1.83;1.27;;;21.70;62.60;;;;;;5099137;28;20028;-78
2021/06/13 07:38:31;;;;;;;4.72;1.30;;;21.40;61.70;;;;;;5102022;28;20110;-79
2021/06/13 07:40:57;;;;;;;2.85;1.27;;;21.60;62.30;;;;;;5103313;28;20529;-78
2021/06/13 07:43:23;;;;;;;4.40;1.50;;;22.40;64.10;;;;;;5102780;27;20115;-79
2021/06/13 07:45:49;;;;;;;1.40;1.30;;;23.30;61.30;;;;;;5100520;28;20111;-78
2021/06/13 07:48:15;;;;;;;2.80;1.13;;;24.10;59.10;;;;;;5102268;28;20124;-78
2021/06/13 07:50:42;;;;;;;4.93;1.20;;;24.70;53.70;;;;;;5102740;28;20089;-78
2021/06/13 07:53:09;;;;;;;1.20;1.10;;;24.80;53.70;;;;;;5103394;28;20032;-79
2021/06/13 07:55:35;;;;;;;2.45;1.13;;;24.30;49.70;;;;;;5106788;28;20183;-79
2021/06/13 07:58:01;;;;;;;3.28;1.33;;;24.10;51.80;;;;;;5109507;28;20122;-77
2021/06/13 08:00:27;;;;;;;2.10;1.10;;;24.30;54.60;;;;;;5106585;28;20051;-78
2021/06/13 08:02:52;;;;;;;1.65;1.35;;;24.60;53.70;;;;;;5106924;28;20028;-78
2021/06/13 08:05:25;;;;;;;1.85;1.05;;;24.90;53.20;;;;;;5112596;28;20047;-78
2021/06/13 08:07:52;;;;;;;0.80;0.80;;;24.90;52.30;;;;;;5102473;28;20032;-79
2021/06/13 08:10:18;;;;;;;2.53;1.30;;;24.90;51.50;;;;;;5105554;28;20478;-78
2021/06/13 08:12:44;;;;;;;2.60;1.10;;;24.80;50.90;;;;;;5102595;28;20028;-77
2021/06/13 08:15:10;;;;;;;1.50;0.90;;;24.50;50.70;;;;;;5103211;28;20020;-78
2021/06/13 08:17:36;;;;;;;2.03;1.38;;;24.20;50.60;;;;;;5103153;28;20668;-77
2021/06/13 08:20:05;;;;;;;2.08;0.90;;;23.90;51.00;;;;;;5102975;28;20023;-78
2021/06/13 08:22:31;;;;;;;2.47;1.10;;;23.70;52.10;;;;;;5103551;28;20060;-78
2021/06/13 08:25:00;;;;;;;2.45;1.10;;;23.40;52.10;;;;;;5086465;28;20043;-78
2021/06/13 08:27:29;;;;;;;2.75;1.10;;;23.10;53.30;;;;;;5104533;28;20074;-79
2021/06/13 08:29:56;;;;;;;5.00;1.00;;;22.80;55.50;;;;;;5100700;28;20049;-78
2021/06/13 08:32:21;;;;;;;3.20;1.13;;;22.50;57.80;;;;;;5102684;28;20451;-78
2021/06/13 08:34:47;;;;;;;3.72;1.05;;;22.40;58.70;;;;;;5098864;28;20025;-78
2021/06/13 08:37:13;;;;;;;1.70;1.13;;;22.50;61.60;;;;;;5098516;28;20028;-78
2021/06/13 08:39:39;;;;;;;1.42;1.00;;;22.60;59.90;;;;;;5102360;28;20505;-78
2021/06/13 08:42:05;;;;;;;1.75;1.17;;;22.60;57.20;;;;;;5097878;28;20107;-78
2021/06/13 08:44:32;;;;;;;4.78;1.00;;;22.60;57.90;;;;;;5099331;28;20020;-78
2021/06/13 08:47:00;;;;;;;1.77;1.15;;;22.50;57.10;;;;;;5099919;28;20073;-78
2021/06/13 08:49:26;;;;;;;1.52;0.98;;;22.70;58.90;;;;;;5102414;28;20028;-79
2021/06/13 08:51:53;;;;;;;0.82;0.82;;;22.80;57.80;;;;;;5094455;28;20079;-79
2021/06/13 08:54:20;;;;;;;3.10;1.00;;;23.00;56.60;;;;;;5097943;28;20451;-78
2021/06/13 08:56:46;;;;;;;1.60;0.90;;;23.20;53.10;;;;;;5092224;28;20104;-79
2021/06/13 08:59:13;;;;;;;1.60;0.90;;;23.60;54.80;;;;;;5095787;28;20031;-78
2021/06/13 09:01:39;;;;;;;2.03;1.00;;;24.00;51.90;;;;;;5090790;28;20016;-79
2021/06/13 09:04:06;;;;;;;1.20;1.00;;;24.00;53.40;;;;;;5086435;28;20035;-78
2021/06/13 09:06:32;;;;;;;1.92;0.80;;;24.10;50.80;;;;;;5081090;28;20036;-76
2021/06/13 09:08:59;;;;;;;1.60;0.85;;;24.30;53.40;;;;;;5111525;27;20086;-76
2021/06/13 09:11:32;;;;;;;1.58;0.77;;;24.20;50.20;;;;;;5099584;27;20054;-77
2021/06/13 09:14:12;;;;;;;1.02;0.93;;;24.10;51.50;;;;;;5096693;28;20042;-77
2021/06/13 09:16:43;;;;;;;1.67;0.90;;;23.80;52.90;;;;;;5094307;28;20047;-76
2021/06/13 09:19:09;;;;;;;2.03;0.80;;;23.60;54.70;;;;;;5096213;28;20028;-77
2021/06/13 09:21:37;;;;;;;1.33;0.80;;;23.20;53.40;;;;;;5099539;28;20023;-77
2021/06/13 09:24:39;;;;;;;3.53;1.00;;;22.80;54.90;;;;;;5101158;27;20715;-76
2021/06/13 09:27:08;;;;;;;2.22;1.00;;;22.40;55.00;;;;;;5025589;28;20055;-77
2021/06/13 09:29:51;;;;;;;1.73;0.90;;;22.10;52.50;;;;;;5078169;28;20039;-76
2021/06/13 09:32:17;;;;;;;1.80;0.80;;;21.90;56.40;;;;;;5096444;28;20052;-77
2021/06/13 09:34:42;;;;;;;2.13;0.90;;;21.90;57.10;;;;;;5097645;28;21084;-76
2021/06/13 09:37:08;;;;;;;2.85;1.10;;;21.80;54.70;;;;;;5083666;28;20040;-77
2021/06/13 09:39:35;;;;;;;1.95;0.85;;;21.60;60.10;;;;;;5094194;27;20106;-77
2021/06/13 09:42:08;;;;;;;2.05;1.00;;;21.40;58.40;;;;;;5093246;27;21393;-77
2021/06/13 09:44:36;;;;;;;1.33;0.80;;;21.20;56.90;;;;;;5098033;28;20052;-76
2021/06/13 09:47:03;;;;;;;2.88;0.95;;;21.10;61.20;;;;;;5098362;28;20386;-77
2021/06/13 09:49:46;;;;;;;2.05;1.00;;;21.00;60.90;;;;;;5087867;28;20024;-77
2021/06/13 09:52:12;;;;;;;1.20;1.10;;;20.90;62.80;;;;;;5097293;28;20028;-75
2021/06/13 09:54:37;;;;;;;3.28;1.13;;;20.90;60.90;;;;;;5092015;27;20108;-79
2021/06/13 09:57:04;;;;;;;2.50;1.10;;;20.80;62.40;;;;;;5086162;28;20482;-79
2021/06/13 09:59:34;;;;;;;2.40;0.93;;;20.70;62.50;;;;;;5101154;28;20489;-78
2021/06/13 10:02:02;;;;;;;2.90;1.08;;;20.50;63.40;;;;;;5098447;27;20591;-78
2021/06/13 10:04:37;;;;;;;2.05;0.88;;;20.50;61.30;;;;;;5099359;28;20031;-78
2021/06/13 10:07:18;;;;;;;1.95;1.13;;;20.50;57.10;;;;;;5102834;28;20070;-77
2021/06/13 10:09:49;;;;;;;3.22;1.13;;;20.30;58.20;;;;;;5097458;28;20051;-76
2021/06/13 10:12:15;;;;;;;3.08;0.98;;;20.30;63.80;;;;;;5099787;27;20019;-77
2021/06/13 10:14:42;;;;;;;0.80;0.80;;;20.20;60.20;;;;;;5099418;28;20035;-77
2021/06/13 10:17:09;;;;;;;1.58;1.15;;;20.10;61.30;;;;;;5097961;27;20040;-78
2021/06/13 10:19:43;;;;;;;1.60;1.02;;;20.10;63.30;;;;;;5100061;28;20500;-77
2021/06/13 10:22:10;;;;;;;1.52;1.05;;;20.20;63.80;;;;;;5098361;28;20036;-77
2021/06/13 10:24:38;;;;;;;4.60;1.30;;;20.20;61.20;;;;;;5093738;28;20712;-77
2021/06/13 10:27:06;;;;;;;3.15;1.48;;;20.20;60.10;;;;;;5099124;28;20028;-77
2021/06/13 10:29:35;;;;;;;4.18;1.33;;;20.20;63.90;;;;;;5101744;28;20024;-77
2021/06/13 10:32:04;;;;;;;4.18;1.33;;;20.30;64.40;;;;;;5103729;28;20041;-79
2021/06/13 10:34:31;;;;;;;2.88;1.20;;;20.20;60.90;;;;;;5104163;28;20119;-79
2021/06/13 10:36:59;;;;;;;2.70;1.20;;;20.30;63.00;;;;;;5100424;28;20020;-77
2021/06/13 10:39:28;;;;;;;1.20;1.05;;;20.20;61.40;;;;;;5094033;28;20621;-78
2021/06/13 10:41:54;;;;;;;1.45;1.00;;;20.20;59.50;;;;;;5100323;28;20032;-79
2021/06/13 10:44:23;;;;;;;2.85;1.00;;;20.20;62.00;;;;;;5100556;28;20032;-78
2021/06/13 10:46:54;;;;;;;1.38;1.02;;;20.20;61.40;;;;;;5086164;28;20129;-78
2021/06/13 10:49:32;;;;;;;3.53;1.30;;;20.20;64.50;;;;;;5103962;28;20030;-78
2021/06/13 10:52:14;;;;;;;2.33;1.20;;;20.20;62.50;;;;;;5089761;28;20028;-76
2021/06/13 10:54:39;;;;;;;2.13;1.23;;;20.10;59.30;;;;;;5100629;28;20596;-79
2021/06/13 10:57:08;;;;;;;1.52;0.98;;;20.10;66.40;;;;;;5097976;28;20024;-78
2021/06/13 10:59:41;;;;;;;4.13;1.20;;;20.20;62.50;;;;;;5093292;28;20033;-75
2021/06/13 11:02:11;;;;;;;3.28;1.33;;;20.20;63.80;;;;;;5094875;28;20028;-77
2021/06/13 11:05:09;;;;;;;1.17;1.00;;;20.40;63.20;;;;;;5095963;28;20031;-78
2021/06/13 11:07:40;;;;;;;1.92;1.15;;;20.40;56.80;;;;;;5041607;28;20048;-78
2021/06/13 11:10:09;;;;;;;1.35;1.00;;;20.40;62.20;;;;;;5097159;28;20045;-76
2021/06/13 11:12:58;;;;;;;2.97;0.93;;;20.40;61.80;;;;;;5098512;28;20024;-78
2021/06/13 11:15:35;;;;;;;3.03;1.00;;;20.40;57.60;;;;;;5093946;28;20103;-76
2021/06/13 11:18:07;;;;;;;4.07;1.17;;;20.30;59.00;;;;;;5095540;28;20043;-77
2021/06/13 11:23:09;;;;;;;3.60;1.30;;;20.40;63.00;;;;;;5098492;28;20023;-78
2021/06/13 11:25:42;;;;;;;3.72;1.30;;;20.50;66.80;;;;;;5094845;28;20035;-78
2021/06/13 11:28:27;;;;;;;1.60;1.25;;;20.70;69.50;;;;;;5098939;28;20046;-77
2021/06/13 11:31:08;;;;;;;3.50;1.30;;;20.90;58.10;;;;;;5101536;28;20040;-78
2021/06/13 11:33:34;;;;;;;3.95;1.02;;;20.90;59.20;;;;;;5097889;28;20372;-78
2021/06/13 11:36:25;;;;;;;1.23;1.00;;;20.90;63.20;;;;;;5097169;28;20068;-77
2021/06/13 11:38:52;;;;;;;3.80;1.38;;;21.00;62.10;;;;;;5098416;28;20024;-78
2021/06/13 11:41:27;;;;;;;1.50;1.20;;;21.20;62.00;;;;;;5099154;28;20019;-77
2021/06/13 11:43:53;;;;;;;2.58;1.00;;;21.40;64.70;;;;;;5097360;28;20027;-77
2021/06/13 11:46:35;;;;;;;3.10;1.20;;;21.60;58.20;;;;;;5099317;28;20049;-77
2021/06/13 11:49:03;;;;;;;1.88;1.20;;;21.90;61.30;;;;;;5098268;28;20031;-76
2021/06/13 11:51:30;;;;;;;1.65;1.20;;;22.10;55.40;;;;;;5104664;28;20089;-76
2021/06/13 11:53:59;;;;;;;1.15;0.90;;;22.30;58.80;;;;;;5101337;28;20119;-78
2021/06/13 11:56:33;;;;;;;2.35;1.23;;;22.50;56.50;;;;;;5102090;28;20026;-76
2021/06/13 11:59:22;;;;;;;2.23;1.10;;;22.80;57.20;;;;;;5101346;28;20074;-78
2021/06/13 12:02:04;;;;;;;2.50;1.23;;;23.00;56.10;;;;;;5095341;28;20051;-75
2021/06/13 12:04:30;;;;;;;3.13;1.35;;;23.30;57.50;;;;;;5098365;28;20024;-75
2021/06/13 12:06:58;;;;;;;3.80;1.00;;;23.60;56.40;;;;;;5099751;28;20080;-75
2021/06/13 12:09:25;;;;;;;1.35;1.02;;;23.90;55.30;;;;;;5102925;28;20080;-78
2021/06/13 12:11:52;;;;;;;4.55;1.15;;;24.10;54.70;;;;;;5095556;28;20024;-77
2021/06/13 12:14:18;;;;;;;1.67;1.08;;;24.20;53.80;;;;;;5104038;28;20084;-78
2021/06/13 12:16:46;;;;;;;1.90;1.17;;;24.50;57.50;;;;;;5102003;27;20028;-79
2021/06/13 12:19:12;;;;;;;1.00;0.90;;;24.80;56.10;;;;;;5093217;28;20833;-79
2021/06/13 12:21:38;;;;;;;2.55;1.08;;;25.10;54.30;;;;;;5084933;28;20032;-77
2021/06/13 12:24:33;;;;;;;3.38;1.00;;;25.30;51.70;;;;;;5101320;28;20112;-79
2021/06/13 12:27:27;;;;;;;1.40;0.90;;;25.60;53.80;;;;;;5110294;28;20020;-77
2021/06/13 12:29:55;;;;;;;2.60;1.27;;;26.10;53.90;;;;;;5106646;28;20028;-79
2021/06/13 12:32:22;;;;;;;1.48;1.05;;;26.20;49.80;;;;;;5081754;28;20030;-79
2021/06/13 12:34:54;;;;;;;2.70;0.80;;;26.10;50.30;;;;;;5070143;28;20034;-79
2021/06/13 12:37:25;;;;;;;2.08;1.00;;;26.20;51.40;;;;;;5095078;28;20024;-79
2021/06/13 12:40:07;;;;;;;3.80;1.40;;;26.40;52.50;;;;;;5069673;28;20046;-77
2021/06/13 12:42:33;;;;;;;2.42;1.00;;;26.30;47.50;;;;;;5101120;28;20097;-79
2021/06/13 12:45:06;;;;;;;3.95;1.00;;;26.50;49.20;;;;;;5099098;28;20388;-77
2021/06/13 12:47:33;;;;;;;1.90;1.15;;;26.60;52.50;;;;;;5097016;28;20032;-79
2021/06/13 12:50:00;;;;;;;1.50;1.00;;;26.80;51.10;;;;;;5078940;28;20035;-79
2021/06/13 12:52:26;;;;;;;2.63;1.30;;;27.00;52.60;;;;;;5084652;28;20129;-78
2021/06/13 12:55:05;;;;;;;0.73;0.70;;;27.30;49.80;;;;;;5100414;28;20028;-78
2021/06/13 12:57:32;;;;;;;1.60;0.98;;;27.20;45.20;;;;;;5105197;28;20086;-78
2021/06/13 12:59:58;;;;;;;1.55;1.00;;;27.30;45.50;;;;;;5098628;28;20036;-78